sensor_id;sensor_type;location;lat;lon;timestamp;P1;durP1;ratioP1;P2;durP2;ratioP2
3781;SDS011;6881;49.962;7.718;2022-12-18T00:01:04;15.53;;;9.57;;
3781;SDS011;6881;49.962;7.718;2022-12-18T00:03:34;19.80;;;11.10;;
3781;SDS011;6881;49.962;7.718;2022-12-18T00:06:00;16.60;;;8.30;;
3781;SDS011;6881;49.962;7.718;2022-12-18T00:08:25;15.33;;;12.70;;
3781;SDS011;6881;49.962;7.718;2022-12-18T00:10:52;24.20;;;7.90;;
3781;SDS011;6881;49.962;7.718;2022-12-18T00:13:17;15.50;;;9.13;;
3781;SDS011;6881;49.962;7.718;2022-12-18T00:15:42;15.67;;;6.50;;
3781;SDS011;6881;49.962;7.718;2022-12-18T00:18:08;10.33;;;5.00;;
3781;SDS011;6881;49.962;7.718;2022-12-18T00:20:37;13.43;;;6.83;;
3781;SDS011;6881;49.962;7.718;2022-12-18T00:23:03;10.60;;;5.27;;
3781;SDS011;6881;49.962;7.718;2022-12-18T00:25:29;8.27;;;6.70;;
3781;SDS011;6881;49.962;7.718;2022-12-18T00:27:54;6.00;;;5.00;;
3781;SDS011;6881;49.962;7.718;2022-12-18T00:30:20;17.67;;;6.97;;
3781;SDS011;6881;49.962;7.718;2022-12-18T00:32:45;7.20;;;5.27;;
3781;SDS011;6881;49.962;7.718;2022-12-18T00:35:10;6.53;;;4.20;;
3781;SDS011;6881;49.962;7.718;2022-12-18T00:37:36;6.50;;;5.87;;
3781;SDS011;6881;49.962;7.718;2022-12-18T00:40:02;15.20;;;8.90;;
3781;SDS011;6881;49.962;7.718;2022-12-18T00:42:28;13.83;;;9.30;;
3781;SDS011;6881;49.962;7.718;2022-12-18T00:45:12;7.30;;;6.30;;
3781;SDS011;6881;49.962;7.718;2022-12-18T00:47:37;14.87;;;6.77;;
3781;SDS011;6881;49.962;7.718;2022-12-18T00:50:03;15.43;;;6.97;;
3781;SDS011;6881;49.962;7.718;2022-12-18T00:52:28;9.43;;;6.33;;
3781;SDS011;6881;49.962;7.718;2022-12-18T00:54:54;13.97;;;6.60;;
3781;SDS011;6881;49.962;7.718;2022-12-18T00:57:19;10.27;;;4.93;;
3781;SDS011;6881;49.962;7.718;2022-12-18T00:59:44;7.63;;;6.87;;
3781;SDS011;6881;49.962;7.718;2022-12-18T01:02:10;8.03;;;5.97;;
3781;SDS011;6881;49.962;7.718;2022-12-18T01:04:38;13.03;;;5.87;;
3781;SDS011;6881;49.962;7.718;2022-12-18T01:07:03;12.13;;;6.63;;
3781;SDS011;6881;49.962;7.718;2022-12-18T01:09:28;9.90;;;6.17;;
3781;SDS011;6881;49.962;7.718;2022-12-18T01:11:54;11.97;;;6.60;;
3781;SDS011;6881;49.962;7.718;2022-12-18T01:14:19;18.23;;;8.80;;
3781;SDS011;6881;49.962;7.718;2022-12-18T01:16:44;17.73;;;10.93;;
3781;SDS011;6881;49.962;7.718;2022-12-18T01:19:10;16.77;;;10.80;;
3781;SDS011;6881;49.962;7.718;2022-12-18T01:21:35;13.87;;;10.13;;
3781;SDS011;6881;49.962;7.718;2022-12-18T01:24:00;20.40;;;10.07;;
3781;SDS011;6881;49.962;7.718;2022-12-18T01:26:26;10.43;;;8.03;;
3781;SDS011;6881;49.962;7.718;2022-12-18T01:28:54;24.30;;;11.33;;
3781;SDS011;6881;49.962;7.718;2022-12-18T01:33:49;23.77;;;11.67;;
3781;SDS011;6881;49.962;7.718;2022-12-18T01:36:19;23.00;;;11.37;;
3781;SDS011;6881;49.962;7.718;2022-12-18T01:38:46;28.20;;;15.00;;
3781;SDS011;6881;49.962;7.718;2022-12-18T01:41:12;25.13;;;11.60;;
3781;SDS011;6881;49.962;7.718;2022-12-18T01:43:56;26.60;;;12.20;;
3781;SDS011;6881;49.962;7.718;2022-12-18T01:46:23;22.13;;;10.90;;
3781;SDS011;6881;49.962;7.718;2022-12-18T01:48:51;12.20;;;8.00;;
3781;SDS011;6881;49.962;7.718;2022-12-18T01:51:18;23.40;;;11.07;;
3781;SDS011;6881;49.962;7.718;2022-12-18T01:53:44;24.43;;;14.30;;
3781;SDS011;6881;49.962;7.718;2022-12-18T01:56:12;24.27;;;11.70;;
3781;SDS011;6881;49.962;7.718;2022-12-18T02:01:14;27.80;;;14.00;;
3781;SDS011;6881;49.962;7.718;2022-12-18T02:03:43;30.47;;;18.10;;
3781;SDS011;6881;49.962;7.718;2022-12-18T02:08:40;15.57;;;8.60;;
3781;SDS011;6881;49.962;7.718;2022-12-18T02:13:55;24.83;;;11.17;;
3781;SDS011;6881;49.962;7.718;2022-12-18T02:16:30;27.30;;;15.60;;
3781;SDS011;6881;49.962;7.718;2022-12-18T02:19:09;56.13;;;25.37;;
3781;SDS011;6881;49.962;7.718;2022-12-18T02:22:24;57.87;;;26.00;;
3781;SDS011;6881;49.962;7.718;2022-12-18T02:24:58;38.07;;;21.73;;
3781;SDS011;6881;49.962;7.718;2022-12-18T02:27:31;31.33;;;17.63;;
3781;SDS011;6881;49.962;7.718;2022-12-18T02:29:57;28.17;;;15.13;;
3781;SDS011;6881;49.962;7.718;2022-12-18T02:32:26;32.63;;;17.30;;
3781;SDS011;6881;49.962;7.718;2022-12-18T02:34:54;32.40;;;18.60;;
3781;SDS011;6881;49.962;7.718;2022-12-18T02:37:21;53.50;;;23.80;;
3781;SDS011;6881;49.962;7.718;2022-12-18T02:39:47;37.47;;;17.03;;
3781;SDS011;6881;49.962;7.718;2022-12-18T02:42:13;35.20;;;19.20;;
3781;SDS011;6881;49.962;7.718;2022-12-18T02:44:49;38.90;;;19.70;;
3781;SDS011;6881;49.962;7.718;2022-12-18T02:47:17;29.97;;;15.70;;
3781;SDS011;6881;49.962;7.718;2022-12-18T02:55:13;32.57;;;17.47;;
3781;SDS011;6881;49.962;7.718;2022-12-18T03:00:58;37.40;;;18.37;;
3781;SDS011;6881;49.962;7.718;2022-12-18T03:03:34;42.83;;;20.20;;
3781;SDS011;6881;49.962;7.718;2022-12-18T03:06:04;36.73;;;18.93;;
3781;SDS011;6881;49.962;7.718;2022-12-18T03:08:36;39.73;;;20.47;;
3781;SDS011;6881;49.962;7.718;2022-12-18T03:11:08;48.20;;;23.60;;
3781;SDS011;6881;49.962;7.718;2022-12-18T03:16:01;36.33;;;20.10;;
3781;SDS011;6881;49.962;7.718;2022-12-18T03:18:29;33.80;;;16.33;;
3781;SDS011;6881;49.962;7.718;2022-12-18T03:20:59;27.97;;;16.07;;
3781;SDS011;6881;49.962;7.718;2022-12-18T03:23:27;32.60;;;16.13;;
3781;SDS011;6881;49.962;7.718;2022-12-18T03:25:56;33.93;;;15.87;;
3781;SDS011;6881;49.962;7.718;2022-12-18T03:28:22;20.43;;;12.53;;
3781;SDS011;6881;49.962;7.718;2022-12-18T03:30:50;37.43;;;18.60;;
3781;SDS011;6881;49.962;7.718;2022-12-18T03:33:25;38.93;;;15.93;;
3781;SDS011;6881;49.962;7.718;2022-12-18T03:35:53;28.47;;;15.90;;
3781;SDS011;6881;49.962;7.718;2022-12-18T03:38:19;30.03;;;13.83;;
3781;SDS011;6881;49.962;7.718;2022-12-18T03:43:30;29.90;;;14.63;;
3781;SDS011;6881;49.962;7.718;2022-12-18T03:46:09;21.63;;;12.10;;
3781;SDS011;6881;49.962;7.718;2022-12-18T03:48:43;32.57;;;18.27;;
3781;SDS011;6881;49.962;7.718;2022-12-18T03:51:16;27.93;;;13.63;;
3781;SDS011;6881;49.962;7.718;2022-12-18T03:53:46;22.80;;;14.57;;
3781;SDS011;6881;49.962;7.718;2022-12-18T03:56:16;28.47;;;16.10;;
3781;SDS011;6881;49.962;7.718;2022-12-18T03:58:43;25.43;;;15.80;;
3781;SDS011;6881;49.962;7.718;2022-12-18T04:01:09;24.13;;;15.60;;
3781;SDS011;6881;49.962;7.718;2022-12-18T04:03:37;26.30;;;15.27;;
3781;SDS011;6881;49.962;7.718;2022-12-18T04:06:03;26.40;;;14.10;;
3781;SDS011;6881;49.962;7.718;2022-12-18T04:08:28;18.00;;;13.27;;
3781;SDS011;6881;49.962;7.718;2022-12-18T04:10:54;20.37;;;14.77;;
3781;SDS011;6881;49.962;7.718;2022-12-18T04:13:23;39.03;;;16.67;;
3781;SDS011;6881;49.962;7.718;2022-12-18T04:15:59;37.10;;;16.40;;
3781;SDS011;6881;49.962;7.718;2022-12-18T04:18:25;19.93;;;12.73;;
3781;SDS011;6881;49.962;7.718;2022-12-18T04:20:50;25.97;;;16.07;;
3781;SDS011;6881;49.962;7.718;2022-12-18T04:23:15;26.10;;;14.10;;
3781;SDS011;6881;49.962;7.718;2022-12-18T04:25:41;19.23;;;13.37;;
3781;SDS011;6881;49.962;7.718;2022-12-18T04:28:06;31.00;;;15.40;;
3781;SDS011;6881;49.962;7.718;2022-12-18T04:30:32;27.90;;;14.17;;
3781;SDS011;6881;49.962;7.718;2022-12-18T04:32:57;26.80;;;13.70;;
3781;SDS011;6881;49.962;7.718;2022-12-18T04:35:22;38.53;;;16.57;;
3781;SDS011;6881;49.962;7.718;2022-12-18T04:37:48;29.80;;;17.43;;
3781;SDS011;6881;49.962;7.718;2022-12-18T04:40:13;29.37;;;16.20;;
3781;SDS011;6881;49.962;7.718;2022-12-18T04:42:39;30.23;;;17.47;;
3781;SDS011;6881;49.962;7.718;2022-12-18T04:45:05;21.47;;;14.80;;
3781;SDS011;6881;49.962;7.718;2022-12-18T04:47:31;28.37;;;18.53;;
3781;SDS011;6881;49.962;7.718;2022-12-18T04:49:56;34.80;;;15.47;;
3781;SDS011;6881;49.962;7.718;2022-12-18T04:52:21;34.03;;;15.33;;
3781;SDS011;6881;49.962;7.718;2022-12-18T04:54:47;30.17;;;15.47;;
3781;SDS011;6881;49.962;7.718;2022-12-18T04:57:12;25.73;;;15.47;;
3781;SDS011;6881;49.962;7.718;2022-12-18T04:59:38;30.77;;;15.33;;
3781;SDS011;6881;49.962;7.718;2022-12-18T05:02:03;29.60;;;16.27;;
3781;SDS011;6881;49.962;7.718;2022-12-18T05:04:28;31.77;;;16.80;;
3781;SDS011;6881;49.962;7.718;2022-12-18T05:06:53;28.93;;;17.60;;
3781;SDS011;6881;49.962;7.718;2022-12-18T05:09:19;32.53;;;17.90;;
3781;SDS011;6881;49.962;7.718;2022-12-18T05:11:44;33.47;;;15.90;;
3781;SDS011;6881;49.962;7.718;2022-12-18T05:14:09;27.73;;;14.90;;
3781;SDS011;6881;49.962;7.718;2022-12-18T05:16:36;31.63;;;18.23;;
3781;SDS011;6881;49.962;7.718;2022-12-18T05:19:01;24.07;;;14.43;;
3781;SDS011;6881;49.962;7.718;2022-12-18T05:21:27;23.47;;;14.77;;
3781;SDS011;6881;49.962;7.718;2022-12-18T05:23:52;24.00;;;15.67;;
3781;SDS011;6881;49.962;7.718;2022-12-18T05:26:17;30.63;;;16.60;;
3781;SDS011;6881;49.962;7.718;2022-12-18T05:28:43;33.43;;;16.73;;
3781;SDS011;6881;49.962;7.718;2022-12-18T05:31:09;31.57;;;18.03;;
3781;SDS011;6881;49.962;7.718;2022-12-18T05:33:34;35.30;;;13.80;;
3781;SDS011;6881;49.962;7.718;2022-12-18T05:36:00;28.37;;;15.53;;
3781;SDS011;6881;49.962;7.718;2022-12-18T05:38:27;28.23;;;14.13;;
3781;SDS011;6881;49.962;7.718;2022-12-18T05:40:53;35.90;;;18.40;;
3781;SDS011;6881;49.962;7.718;2022-12-18T05:43:19;34.10;;;17.30;;
3781;SDS011;6881;49.962;7.718;2022-12-18T05:45:47;38.57;;;19.13;;
3781;SDS011;6881;49.962;7.718;2022-12-18T05:48:12;32.10;;;16.10;;
3781;SDS011;6881;49.962;7.718;2022-12-18T05:50:39;32.70;;;17.50;;
3781;SDS011;6881;49.962;7.718;2022-12-18T05:53:06;29.40;;;15.17;;
3781;SDS011;6881;49.962;7.718;2022-12-18T05:55:35;34.43;;;18.17;;
3781;SDS011;6881;49.962;7.718;2022-12-18T05:58:01;31.77;;;18.90;;
3781;SDS011;6881;49.962;7.718;2022-12-18T06:00:27;31.13;;;17.83;;
3781;SDS011;6881;49.962;7.718;2022-12-18T06:02:52;27.13;;;16.43;;
3781;SDS011;6881;49.962;7.718;2022-12-18T06:05:17;25.73;;;15.83;;
3781;SDS011;6881;49.962;7.718;2022-12-18T06:07:42;39.00;;;16.60;;
3781;SDS011;6881;49.962;7.718;2022-12-18T06:10:08;32.07;;;15.90;;
3781;SDS011;6881;49.962;7.718;2022-12-18T06:12:33;26.93;;;16.57;;
3781;SDS011;6881;49.962;7.718;2022-12-18T06:14:59;31.67;;;14.30;;
3781;SDS011;6881;49.962;7.718;2022-12-18T06:17:28;34.33;;;17.70;;
3781;SDS011;6881;49.962;7.718;2022-12-18T06:19:54;35.83;;;17.90;;
3781;SDS011;6881;49.962;7.718;2022-12-18T06:22:20;25.13;;;16.47;;
3781;SDS011;6881;49.962;7.718;2022-12-18T06:24:45;27.07;;;17.07;;
3781;SDS011;6881;49.962;7.718;2022-12-18T06:27:10;24.60;;;16.00;;
3781;SDS011;6881;49.962;7.718;2022-12-18T06:29:36;41.20;;;18.57;;
3781;SDS011;6881;49.962;7.718;2022-12-18T06:32:01;26.80;;;17.47;;
3781;SDS011;6881;49.962;7.718;2022-12-18T06:34:26;34.00;;;18.00;;
3781;SDS011;6881;49.962;7.718;2022-12-18T06:36:52;30.87;;;17.07;;
3781;SDS011;6881;49.962;7.718;2022-12-18T06:39:17;28.50;;;17.00;;
3781;SDS011;6881;49.962;7.718;2022-12-18T06:41:42;23.57;;;16.10;;
3781;SDS011;6881;49.962;7.718;2022-12-18T06:44:08;32.70;;;16.90;;
3781;SDS011;6881;49.962;7.718;2022-12-18T06:46:33;36.13;;;18.53;;
3781;SDS011;6881;49.962;7.718;2022-12-18T06:48:58;35.10;;;19.87;;
3781;SDS011;6881;49.962;7.718;2022-12-18T06:51:24;37.63;;;18.00;;
3781;SDS011;6881;49.962;7.718;2022-12-18T06:53:49;33.60;;;17.37;;
3781;SDS011;6881;49.962;7.718;2022-12-18T06:56:15;29.30;;;18.17;;
3781;SDS011;6881;49.962;7.718;2022-12-18T06:58:41;36.90;;;19.10;;
3781;SDS011;6881;49.962;7.718;2022-12-18T07:01:08;24.43;;;15.90;;
3781;SDS011;6881;49.962;7.718;2022-12-18T07:03:35;29.47;;;15.17;;
3781;SDS011;6881;49.962;7.718;2022-12-18T07:06:01;26.53;;;16.63;;
3781;SDS011;6881;49.962;7.718;2022-12-18T07:08:28;37.47;;;19.97;;
3781;SDS011;6881;49.962;7.718;2022-12-18T07:10:54;30.00;;;18.77;;
3781;SDS011;6881;49.962;7.718;2022-12-18T07:13:19;34.27;;;17.47;;
3781;SDS011;6881;49.962;7.718;2022-12-18T07:15:44;36.47;;;19.67;;
3781;SDS011;6881;49.962;7.718;2022-12-18T07:18:10;41.87;;;20.67;;
3781;SDS011;6881;49.962;7.718;2022-12-18T07:20:35;38.00;;;19.10;;
3781;SDS011;6881;49.962;7.718;2022-12-18T07:23:02;30.90;;;17.17;;
3781;SDS011;6881;49.962;7.718;2022-12-18T07:25:28;22.80;;;14.20;;
3781;SDS011;6881;49.962;7.718;2022-12-18T07:27:53;36.33;;;17.73;;
3781;SDS011;6881;49.962;7.718;2022-12-18T07:30:19;25.77;;;16.70;;
3781;SDS011;6881;49.962;7.718;2022-12-18T07:32:44;29.80;;;17.93;;
3781;SDS011;6881;49.962;7.718;2022-12-18T07:35:09;34.10;;;18.93;;
3781;SDS011;6881;49.962;7.718;2022-12-18T07:37:35;27.63;;;17.93;;
3781;SDS011;6881;49.962;7.718;2022-12-18T07:40:00;28.30;;;18.27;;
3781;SDS011;6881;49.962;7.718;2022-12-18T07:42:26;31.33;;;17.93;;
3781;SDS011;6881;49.962;7.718;2022-12-18T07:45:00;39.47;;;18.77;;
3781;SDS011;6881;49.962;7.718;2022-12-18T07:47:26;32.00;;;17.93;;
3781;SDS011;6881;49.962;7.718;2022-12-18T07:49:53;28.00;;;15.40;;
3781;SDS011;6881;49.962;7.718;2022-12-18T07:52:18;53.93;;;20.27;;
3781;SDS011;6881;49.962;7.718;2022-12-18T07:54:43;25.07;;;16.90;;
3781;SDS011;6881;49.962;7.718;2022-12-18T07:57:09;40.60;;;17.57;;
3781;SDS011;6881;49.962;7.718;2022-12-18T07:59:35;18.33;;;11.70;;
3781;SDS011;6881;49.962;7.718;2022-12-18T08:02:00;30.63;;;17.80;;
3781;SDS011;6881;49.962;7.718;2022-12-18T08:04:25;33.30;;;15.30;;
3781;SDS011;6881;49.962;7.718;2022-12-18T08:06:51;27.47;;;13.70;;
3781;SDS011;6881;49.962;7.718;2022-12-18T08:09:16;24.87;;;14.10;;
3781;SDS011;6881;49.962;7.718;2022-12-18T08:11:42;35.67;;;16.53;;
3781;SDS011;6881;49.962;7.718;2022-12-18T08:14:07;34.97;;;17.60;;
3781;SDS011;6881;49.962;7.718;2022-12-18T08:16:33;30.50;;;16.93;;
3781;SDS011;6881;49.962;7.718;2022-12-18T08:18:58;33.27;;;17.80;;
3781;SDS011;6881;49.962;7.718;2022-12-18T08:21:25;29.90;;;16.53;;
3781;SDS011;6881;49.962;7.718;2022-12-18T08:23:52;23.00;;;15.43;;
3781;SDS011;6881;49.962;7.718;2022-12-18T08:26:18;27.50;;;16.50;;
3781;SDS011;6881;49.962;7.718;2022-12-18T08:28:44;21.17;;;15.53;;
3781;SDS011;6881;49.962;7.718;2022-12-18T08:31:10;22.57;;;13.17;;
3781;SDS011;6881;49.962;7.718;2022-12-18T08:33:36;24.03;;;16.13;;
3781;SDS011;6881;49.962;7.718;2022-12-18T08:36:03;28.60;;;14.90;;
3781;SDS011;6881;49.962;7.718;2022-12-18T08:38:29;26.20;;;15.53;;
3781;SDS011;6881;49.962;7.718;2022-12-18T08:41:01;20.43;;;14.73;;
3781;SDS011;6881;49.962;7.718;2022-12-18T08:43:28;24.70;;;15.03;;
3781;SDS011;6881;49.962;7.718;2022-12-18T08:46:12;26.80;;;17.37;;
3781;SDS011;6881;49.962;7.718;2022-12-18T08:48:43;40.57;;;15.50;;
3781;SDS011;6881;49.962;7.718;2022-12-18T08:51:09;24.33;;;17.57;;
3781;SDS011;6881;49.962;7.718;2022-12-18T08:53:35;46.37;;;21.07;;
3781;SDS011;6881;49.962;7.718;2022-12-18T08:56:01;42.63;;;18.30;;
3781;SDS011;6881;49.962;7.718;2022-12-18T08:58:27;38.30;;;16.17;;
3781;SDS011;6881;49.962;7.718;2022-12-18T09:00:52;24.57;;;17.70;;
3781;SDS011;6881;49.962;7.718;2022-12-18T09:03:18;29.80;;;18.03;;
3781;SDS011;6881;49.962;7.718;2022-12-18T09:05:45;30.07;;;19.40;;
3781;SDS011;6881;49.962;7.718;2022-12-18T09:08:11;21.43;;;13.40;;
3781;SDS011;6881;49.962;7.718;2022-12-18T09:10:43;29.50;;;18.17;;
3781;SDS011;6881;49.962;7.718;2022-12-18T09:13:10;23.70;;;15.63;;
3781;SDS011;6881;49.962;7.718;2022-12-18T09:15:46;25.43;;;17.47;;
3781;SDS011;6881;49.962;7.718;2022-12-18T09:18:13;31.47;;;18.17;;
3781;SDS011;6881;49.962;7.718;2022-12-18T09:20:39;26.33;;;15.33;;
3781;SDS011;6881;49.962;7.718;2022-12-18T09:23:05;27.10;;;16.17;;
3781;SDS011;6881;49.962;7.718;2022-12-18T09:25:31;29.93;;;16.30;;
3781;SDS011;6881;49.962;7.718;2022-12-18T09:27:58;27.60;;;17.23;;
3781;SDS011;6881;49.962;7.718;2022-12-18T09:30:30;28.80;;;17.80;;
3781;SDS011;6881;49.962;7.718;2022-12-18T09:32:58;22.47;;;16.47;;
3781;SDS011;6881;49.962;7.718;2022-12-18T09:35:24;28.27;;;16.80;;
3781;SDS011;6881;49.962;7.718;2022-12-18T09:37:49;29.03;;;17.73;;
3781;SDS011;6881;49.962;7.718;2022-12-18T09:40:19;24.03;;;16.47;;
3781;SDS011;6881;49.962;7.718;2022-12-18T09:42:47;29.33;;;16.60;;
3781;SDS011;6881;49.962;7.718;2022-12-18T09:45:17;29.73;;;16.97;;
3781;SDS011;6881;49.962;7.718;2022-12-18T09:47:42;28.37;;;17.07;;
3781;SDS011;6881;49.962;7.718;2022-12-18T09:50:22;36.33;;;20.00;;
3781;SDS011;6881;49.962;7.718;2022-12-18T09:52:50;30.27;;;20.23;;
3781;SDS011;6881;49.962;7.718;2022-12-18T09:55:34;32.00;;;18.83;;
3781;SDS011;6881;49.962;7.718;2022-12-18T09:58:04;34.17;;;18.87;;
3781;SDS011;6881;49.962;7.718;2022-12-18T10:00:35;30.30;;;19.60;;
3781;SDS011;6881;49.962;7.718;2022-12-18T10:03:01;33.70;;;21.10;;
3781;SDS011;6881;49.962;7.718;2022-12-18T10:05:33;28.03;;;20.07;;
3781;SDS011;6881;49.962;7.718;2022-12-18T10:08:17;31.73;;;19.50;;
3781;SDS011;6881;49.962;7.718;2022-12-18T10:10:52;27.73;;;17.87;;
3781;SDS011;6881;49.962;7.718;2022-12-18T10:24:43;28.33;;;18.90;;
3781;SDS011;6881;49.962;7.718;2022-12-18T10:27:18;35.87;;;19.63;;
3781;SDS011;6881;49.962;7.718;2022-12-18T10:29:47;32.07;;;18.83;;
3781;SDS011;6881;49.962;7.718;2022-12-18T10:32:14;31.27;;;19.27;;
3781;SDS011;6881;49.962;7.718;2022-12-18T10:34:41;33.97;;;20.43;;
3781;SDS011;6881;49.962;7.718;2022-12-18T10:37:06;38.10;;;20.50;;
3781;SDS011;6881;49.962;7.718;2022-12-18T10:39:37;33.43;;;17.80;;
3781;SDS011;6881;49.962;7.718;2022-12-18T10:42:10;33.23;;;17.43;;
3781;SDS011;6881;49.962;7.718;2022-12-18T10:44:39;27.20;;;15.67;;
3781;SDS011;6881;49.962;7.718;2022-12-18T10:47:06;25.27;;;15.53;;
3781;SDS011;6881;49.962;7.718;2022-12-18T10:49:37;31.20;;;13.30;;
3781;SDS011;6881;49.962;7.718;2022-12-18T10:52:14;25.77;;;16.17;;
3781;SDS011;6881;49.962;7.718;2022-12-18T10:54:59;26.57;;;14.77;;
3781;SDS011;6881;49.962;7.718;2022-12-18T10:57:35;34.97;;;16.73;;
3781;SDS011;6881;49.962;7.718;2022-12-18T11:02:50;22.17;;;11.37;;
3781;SDS011;6881;49.962;7.718;2022-12-18T11:05:26;24.10;;;13.50;;
3781;SDS011;6881;49.962;7.718;2022-12-18T11:07:57;18.27;;;10.70;;
3781;SDS011;6881;49.962;7.718;2022-12-18T11:10:33;22.03;;;10.87;;
3781;SDS011;6881;49.962;7.718;2022-12-18T11:13:21;28.00;;;14.30;;
3781;SDS011;6881;49.962;7.718;2022-12-18T11:15:47;27.40;;;15.87;;
3781;SDS011;6881;49.962;7.718;2022-12-18T11:18:34;15.27;;;9.13;;
3781;SDS011;6881;49.962;7.718;2022-12-18T11:21:00;23.70;;;10.17;;
3781;SDS011;6881;49.962;7.718;2022-12-18T11:23:31;9.80;;;6.73;;
3781;SDS011;6881;49.962;7.718;2022-12-18T11:25:58;26.17;;;11.17;;
3781;SDS011;6881;49.962;7.718;2022-12-18T11:31:26;22.70;;;11.20;;
3781;SDS011;6881;49.962;7.718;2022-12-18T11:34:04;21.87;;;11.93;;
3781;SDS011;6881;49.962;7.718;2022-12-18T11:36:42;16.97;;;11.87;;
3781;SDS011;6881;49.962;7.718;2022-12-18T11:41:53;9.13;;;7.37;;
3781;SDS011;6881;49.962;7.718;2022-12-18T11:53:03;28.07;;;14.10;;
3781;SDS011;6881;49.962;7.718;2022-12-18T11:55:50;29.17;;;14.20;;
3781;SDS011;6881;49.962;7.718;2022-12-18T12:20:49;18.70;;;10.20;;
3781;SDS011;6881;49.962;7.718;2022-12-18T12:26:22;22.37;;;14.00;;
3781;SDS011;6881;49.962;7.718;2022-12-18T12:29:17;21.13;;;9.47;;
3781;SDS011;6881;49.962;7.718;2022-12-18T12:34:36;25.97;;;11.10;;
3781;SDS011;6881;49.962;7.718;2022-12-18T12:37:07;35.30;;;18.37;;
3781;SDS011;6881;49.962;7.718;2022-12-18T12:39:44;25.80;;;13.97;;
3781;SDS011;6881;49.962;7.718;2022-12-18T12:43:19;27.53;;;14.60;;
3781;SDS011;6881;49.962;7.718;2022-12-18T12:45:45;21.30;;;13.80;;
3781;SDS011;6881;49.962;7.718;2022-12-18T12:48:17;26.57;;;13.97;;
3781;SDS011;6881;49.962;7.718;2022-12-18T12:50:48;29.70;;;16.50;;
3781;SDS011;6881;49.962;7.718;2022-12-18T12:53:18;34.13;;;18.17;;
3781;SDS011;6881;49.962;7.718;2022-12-18T12:55:47;33.27;;;16.17;;
3781;SDS011;6881;49.962;7.718;2022-12-18T12:59:15;39.03;;;18.70;;
3781;SDS011;6881;49.962;7.718;2022-12-18T13:07:59;32.10;;;14.60;;
3781;SDS011;6881;49.962;7.718;2022-12-18T13:13:21;37.70;;;17.30;;
3781;SDS011;6881;49.962;7.718;2022-12-18T13:20:33;42.30;;;19.13;;
3781;SDS011;6881;49.962;7.718;2022-12-18T13:23:01;44.43;;;18.67;;
3781;SDS011;6881;49.962;7.718;2022-12-18T13:30:59;15.50;;;10.87;;
3781;SDS011;6881;49.962;7.718;2022-12-18T13:35:58;29.33;;;13.97;;
3781;SDS011;6881;49.962;7.718;2022-12-18T13:41:00;27.07;;;14.23;;
3781;SDS011;6881;49.962;7.718;2022-12-18T13:43:38;38.23;;;18.30;;
3781;SDS011;6881;49.962;7.718;2022-12-18T13:48:49;37.73;;;17.47;;
3781;SDS011;6881;49.962;7.718;2022-12-18T13:51:16;39.83;;;18.63;;
3781;SDS011;6881;49.962;7.718;2022-12-18T13:53:44;39.47;;;20.83;;
3781;SDS011;6881;49.962;7.718;2022-12-18T13:56:17;34.17;;;19.90;;
3781;SDS011;6881;49.962;7.718;2022-12-18T13:58:46;39.70;;;18.30;;
3781;SDS011;6881;49.962;7.718;2022-12-18T14:01:44;40.77;;;20.50;;
3781;SDS011;6881;49.962;7.718;2022-12-18T14:04:11;44.23;;;18.87;;
3781;SDS011;6881;49.962;7.718;2022-12-18T14:07:07;43.00;;;20.40;;
3781;SDS011;6881;49.962;7.718;2022-12-18T14:09:37;39.37;;;19.37;;
3781;SDS011;6881;49.962;7.718;2022-12-18T14:12:06;38.47;;;19.33;;
3781;SDS011;6881;49.962;7.718;2022-12-18T14:14:51;46.07;;;17.53;;
3781;SDS011;6881;49.962;7.718;2022-12-18T14:17:17;36.40;;;18.90;;
3781;SDS011;6881;49.962;7.718;2022-12-18T14:19:46;34.50;;;17.53;;
3781;SDS011;6881;49.962;7.718;2022-12-18T14:22:18;43.53;;;21.43;;
3781;SDS011;6881;49.962;7.718;2022-12-18T14:24:45;37.80;;;19.07;;
3781;SDS011;6881;49.962;7.718;2022-12-18T14:27:12;30.47;;;19.70;;
3781;SDS011;6881;49.962;7.718;2022-12-18T14:29:46;38.13;;;18.83;;
3781;SDS011;6881;49.962;7.718;2022-12-18T14:34:39;49.67;;;22.30;;
3781;SDS011;6881;49.962;7.718;2022-12-18T14:37:04;40.77;;;21.10;;
3781;SDS011;6881;49.962;7.718;2022-12-18T14:39:29;40.83;;;19.57;;
3781;SDS011;6881;49.962;7.718;2022-12-18T14:41:55;34.17;;;19.57;;
3781;SDS011;6881;49.962;7.718;2022-12-18T14:44:20;49.43;;;22.20;;
3781;SDS011;6881;49.962;7.718;2022-12-18T14:46:46;30.87;;;14.50;;
3781;SDS011;6881;49.962;7.718;2022-12-18T14:49:23;46.90;;;23.10;;
3781;SDS011;6881;49.962;7.718;2022-12-18T14:51:54;30.47;;;18.80;;
3781;SDS011;6881;49.962;7.718;2022-12-18T14:54:28;38.93;;;22.17;;
3781;SDS011;6881;49.962;7.718;2022-12-18T14:57:16;40.63;;;20.70;;
3781;SDS011;6881;49.962;7.718;2022-12-18T14:59:46;35.33;;;20.73;;
3781;SDS011;6881;49.962;7.718;2022-12-18T15:02:26;40.90;;;17.33;;
3781;SDS011;6881;49.962;7.718;2022-12-18T15:07:53;25.07;;;13.30;;
3781;SDS011;6881;49.962;7.718;2022-12-18T15:10:24;34.50;;;19.40;;
3781;SDS011;6881;49.962;7.718;2022-12-18T15:18:02;32.33;;;18.30;;
3781;SDS011;6881;49.962;7.718;2022-12-18T15:20:27;43.33;;;20.87;;
3781;SDS011;6881;49.962;7.718;2022-12-18T15:22:56;25.00;;;17.50;;
3781;SDS011;6881;49.962;7.718;2022-12-18T15:25:32;37.83;;;21.10;;
3781;SDS011;6881;49.962;7.718;2022-12-18T15:27:59;42.97;;;21.77;;
3781;SDS011;6881;49.962;7.718;2022-12-18T15:30:25;34.60;;;20.70;;
3781;SDS011;6881;49.962;7.718;2022-12-18T15:32:51;43.33;;;21.47;;
3781;SDS011;6881;49.962;7.718;2022-12-18T15:35:21;32.67;;;18.23;;
3781;SDS011;6881;49.962;7.718;2022-12-18T15:37:48;34.07;;;15.23;;
3781;SDS011;6881;49.962;7.718;2022-12-18T15:40:16;45.53;;;20.47;;
3781;SDS011;6881;49.962;7.718;2022-12-18T15:42:43;47.20;;;20.17;;
3781;SDS011;6881;49.962;7.718;2022-12-18T15:45:27;37.63;;;18.97;;
3781;SDS011;6881;49.962;7.718;2022-12-18T15:47:53;48.47;;;19.17;;
3781;SDS011;6881;49.962;7.718;2022-12-18T15:50:18;41.87;;;20.10;;
3781;SDS011;6881;49.962;7.718;2022-12-18T15:52:44;32.90;;;18.17;;
3781;SDS011;6881;49.962;7.718;2022-12-18T15:55:15;35.90;;;20.07;;
3781;SDS011;6881;49.962;7.718;2022-12-18T15:58:17;35.67;;;20.43;;
3781;SDS011;6881;49.962;7.718;2022-12-18T16:00:45;46.40;;;20.50;;
3781;SDS011;6881;49.962;7.718;2022-12-18T16:03:10;50.10;;;24.20;;
3781;SDS011;6881;49.962;7.718;2022-12-18T16:05:35;39.83;;;20.03;;
3781;SDS011;6881;49.962;7.718;2022-12-18T16:08:01;39.80;;;21.17;;
3781;SDS011;6881;49.962;7.718;2022-12-18T16:10:26;56.87;;;22.53;;
3781;SDS011;6881;49.962;7.718;2022-12-18T16:12:52;38.63;;;18.83;;
3781;SDS011;6881;49.962;7.718;2022-12-18T16:15:17;39.40;;;20.97;;
3781;SDS011;6881;49.962;7.718;2022-12-18T16:17:43;42.43;;;20.93;;
3781;SDS011;6881;49.962;7.718;2022-12-18T16:20:19;32.70;;;18.87;;
3781;SDS011;6881;49.962;7.718;2022-12-18T16:22:45;36.33;;;20.20;;
3781;SDS011;6881;49.962;7.718;2022-12-18T16:25:16;38.77;;;20.27;;
3781;SDS011;6881;49.962;7.718;2022-12-18T16:27:47;43.73;;;20.87;;
3781;SDS011;6881;49.962;7.718;2022-12-18T16:30:14;41.47;;;21.20;;
3781;SDS011;6881;49.962;7.718;2022-12-18T16:32:41;38.47;;;21.17;;
3781;SDS011;6881;49.962;7.718;2022-12-18T16:35:08;35.13;;;18.47;;
3781;SDS011;6881;49.962;7.718;2022-12-18T16:37:34;38.17;;;18.40;;
3781;SDS011;6881;49.962;7.718;2022-12-18T16:40:00;41.63;;;22.27;;
3781;SDS011;6881;49.962;7.718;2022-12-18T16:42:25;47.33;;;21.70;;
3781;SDS011;6881;49.962;7.718;2022-12-18T16:44:51;29.83;;;19.33;;
3781;SDS011;6881;49.962;7.718;2022-12-18T16:47:16;40.13;;;20.50;;
3781;SDS011;6881;49.962;7.718;2022-12-18T16:49:42;36.20;;;18.60;;
3781;SDS011;6881;49.962;7.718;2022-12-18T16:52:09;43.30;;;21.30;;
3781;SDS011;6881;49.962;7.718;2022-12-18T16:54:35;43.40;;;21.37;;
3781;SDS011;6881;49.962;7.718;2022-12-18T16:57:00;38.23;;;19.30;;
3781;SDS011;6881;49.962;7.718;2022-12-18T16:59:26;33.63;;;17.90;;